This is the latest recevied weather packets stored in our database for station/object OE-2100. If no packets are shown the sender has not sent any weather packets the latest 10 day(s).
| Time | Temp. | Humidity | Pressure | Rain* | Wind** | Luminosity | Snow |
|---|---|---|---|---|---|---|---|
| 1788606668 | 18.89° C | 71% | 1022.8 hPa | - | - | - | - |
| 1788604868 | 19.44° C | 72% | 1022.7 hPa | - | - | - | - |
| 1788603067 | 17.78° C | 76% | 1023.2 hPa | - | - | - | - |
| 1788601268 | 15.56° C | 85% | 1023.7 hPa | - | - | - | - |
| 1788599468 | 15° C | 85% | 1023.9 hPa | - | - | - | - |
| 1788597668 | 15.56° C | 83% | 1022.7 hPa | - | - | - | - |
| 1788595867 | 15° C | 76% | 1022.8 hPa | - | - | - | - |
| 1788594067 | 15° C | 73% | 1022.7 hPa | - | - | - | - |
| 1788592267 | 15.56° C | 72% | 1022.6 hPa | - | - | - | - |
| 1788590467 | 16.67° C | 66% | 1022.3 hPa | - | - | - | - |
| 1788588668 | 17.78° C | 73% | 1021 hPa | - | - | - | - |
| 1788559868 | 23.33° C | 51% | 1015.2 hPa | - | - | - | - |
| 1788556269 | 24.44° C | 50% | 1015 hPa | - | - | - | - |
| 1788552668 | 24.44° C | 50% | 1015 hPa | - | - | - | - |
| 1788550868 | 25° C | 47% | 1013.7 hPa | - | - | - | - |
| 1788549068 | 25.56° C | 47% | 1013.6 hPa | - | - | - | - |
| 1788545467 | 26.67° C | 44% | 1012.2 hPa | - | - | - | - |
| 1788543669 | 26.67° C | 44% | 1012.2 hPa | - | - | - | - |
| 1788538269 | 27.78° C | 45% | 1012 hPa | - | - | - | - |
| 1788534668 | 28.33° C | 42% | 1013 hPa | - | - | - | - |
| 1788531068 | 28.33° C | 46% | 1014.1 hPa | - | - | - | - |
| 1788527468 | 28.33° C | 43% | 1014 hPa | - | - | - | - |
| 1788523867 | 27.22° C | 43% | 1015.3 hPa | - | - | - | - |
| 1788522068 | 27.22° C | 45% | 1016.5 hPa | - | - | - | - |
| 1788520268 | 26.67° C | 47% | 1017.7 hPa | - | - | - | - |
* Rain since midnight (hover to see other rain measurements)
** Current wind speed in m/s (hover to see current wind gust speed)